Terminal Aerodrome Forecast
Issued by NWS Tulsa, OK

Home | Current Version | Previous Version | Text Only | Print | Product List | Glossary On
Versions: 1 2 3 4 5 6 7 8 9 10 11 12 13 14
385
FTUS44 KTSA 232320
TAFTUL
TAF
KTUL 232320Z 2400/2424 05006KT P6SM SCT050 BKN150
     FM240200 VRB03KT P6SM SCT250
     FM241500 07006KT P6SM SKC=

USA.gov is the U.S. government's official web portal to all federal, state and local government web resources and services.